Terminal Aerodrome Forecast
Issued by NWS

Current Version | Previous Version | Text Only | Print | Product List | Glossary On
Versions: 1 2 3 4 5 6 7 8 9 10 11 12 13 14 15 16 17 18 19 20 21 22 23 24 25 26 27 28 29 30 31
000
FTUS41 KOKX 290635 AAA
TAFGON
TAF AMD
KGON 290635Z 2907/3006 VRB03KT 1/4SM -SHRA FG VV002
     FM290800 VRB03KT 1/2SM -SHRA FG OVC003
     FM291000 VRB03KT 1SM -SHRA BR OVC003
     FM291200 01007KT 2SM -SHRA OVC003
     FM291300 09009KT 1SM SHRA OVC004
     FM291500 08012G19KT 2SM SHRA OVC010
     FM291700 04014G21KT 4SM -SHRA OVC015
     FM292200 03011G18KT P6SM BKN035
     FM300000 01006KT P6SM BKN050=

USA.gov is the U.S. government's official web portal to all federal, state and local government web resources and services.